Terminal Aerodrome Forecast
Issued by NWS

Home | Current Version | Previous Version | Text Only | Print | Product List | Glossary On
Versions: 1 2 3 4 5 6 7 8 9 10 11 12 13 14
000
FTUS41 KBTV 181120
TAFRUT
TAF
KRUT 181120Z 1812/1912 12006KT P6SM SCT022 OVC035
      TEMPO 1812/1813 BKN022
     FM181600 26010KT P6SM BKN080
     FM181900 27016G26KT P6SM SCT080
     FM182100 31018G30KT P6SM SCT080
     FM190000 32007KT P6SM FEW250
      AMD LTD TO CLD VIS AND WIND=

USA.gov is the U.S. government's official web portal to all federal, state and local government web resources and services.